Time;durP1;ratioP1;P1;durP2;ratioP2;P2;SDS_P1;SDS_P2;PMS_P1;PMS_P2;Temp;Humidity;BMP_temperature;BMP_pressure;BME280_temperature;BME280_humidity;BME280_pressure;Samples;Min_cycle;Max_cycle;Signal;HPM_P1;HPM_P2
2021/07/23 00:00:19;;;;;;;13.88;10.15;;;;;;;;;;5090915;28;20055;-69
2021/07/23 00:02:46;;;;;;;13.30;9.70;;;;;;;;;;5105931;28;20157;-69
2021/07/23 00:05:12;;;;;;;15.75;10.55;;;;;;;;;;5095076;28;20051;-69
2021/07/23 00:07:39;;;;;;;16.23;10.73;;;;;;;;;;5091157;28;20512;-69
2021/07/23 00:10:06;;;;;;;13.07;9.05;;;;;;;;;;5090970;28;20095;-70
2021/07/23 00:12:34;;;;;;;14.38;9.90;;;;;;;;;;5091224;28;20048;-69
2021/07/23 00:15:01;;;;;;;13.73;10.90;;;;;;;;;;5090914;28;20066;-69
2021/07/23 00:17:27;;;;;;;13.23;9.90;;;;;;;;;;5098363;28;20595;-69
2021/07/23 00:19:54;;;;;;;14.77;10.95;;;;;;;;;;5110939;28;20059;-69
2021/07/23 00:22:20;;;;;;;14.80;9.77;;;;;;;;;;5111102;28;20055;-69
2021/07/23 00:24:46;;;;;;;14.00;10.20;;;;;;;;;;5111305;28;20401;-70
2021/07/23 00:27:15;;;;;;;14.02;9.80;;;;;;;;;;5111535;28;20052;-69
2021/07/23 00:29:42;;;;;;;15.98;11.27;;;;;;;;;;5111469;28;20397;-69
2021/07/23 00:32:09;;;;;;;15.98;10.13;;;;;;;;;;5110705;28;20388;-69
2021/07/23 00:34:35;;;;;;;13.95;10.35;;;;;;;;;;5111037;28;20404;-70
2021/07/23 00:37:02;;;;;;;14.18;9.55;;;;;;;;;;5110938;28;20400;-70
2021/07/23 00:39:29;;;;;;;15.55;10.60;;;;;;;;;;5111234;28;20044;-69
2021/07/23 00:41:55;;;;;;;13.35;9.23;;;;;;;;;;5110821;28;20055;-70
2021/07/23 00:44:21;;;;;;;14.27;9.80;;;;;;;;;;5111227;28;20043;-70
2021/07/23 00:46:49;;;;;;;14.70;9.95;;;;;;;;;;5110860;28;20052;-70
2021/07/23 00:49:16;;;;;;;13.52;9.40;;;;;;;;;;5110896;28;20058;-70
2021/07/23 00:51:43;;;;;;;16.48;11.70;;;;;;;;;;5110888;28;20065;-70
2021/07/23 00:54:11;;;;;;;15.55;9.65;;;;;;;;;;5110656;28;20048;-70
2021/07/23 00:56:38;;;;;;;11.93;8.95;;;;;;;;;;5112201;28;20052;-70
2021/07/23 00:59:04;;;;;;;15.68;9.30;;;;;;;;;;5114520;28;20044;-70
2021/07/23 01:01:32;;;;;;;12.30;9.45;;;;;;;;;;5115142;28;20498;-70
2021/07/23 01:03:59;;;;;;;15.30;9.93;;;;;;;;;;5114481;28;20584;-69
2021/07/23 01:06:27;;;;;;;15.77;10.40;;;;;;;;;;5114140;28;20063;-69
2021/07/23 01:08:54;;;;;;;15.55;10.48;;;;;;;;;;5114571;28;20495;-69
2021/07/23 01:11:21;;;;;;;13.77;9.00;;;;;;;;;;5114763;28;20097;-69
2021/07/23 01:13:47;;;;;;;14.40;9.93;;;;;;;;;;5114450;28;20057;-69
2021/07/23 01:16:14;;;;;;;16.88;10.05;;;;;;;;;;5114601;28;20044;-70
2021/07/23 01:18:42;;;;;;;12.85;9.18;;;;;;;;;;5113356;28;20063;-69
2021/07/23 01:21:10;;;;;;;13.38;9.23;;;;;;;;;;5114206;28;20039;-69
2021/07/23 01:23:38;;;;;;;14.93;11.02;;;;;;;;;;5114220;28;20488;-69
2021/07/23 01:26:05;;;;;;;13.73;9.18;;;;;;;;;;5114278;28;20051;-69
2021/07/23 01:28:33;;;;;;;13.38;9.95;;;;;;;;;;5111779;28;20058;-69
2021/07/23 01:31:01;;;;;;;13.85;9.43;;;;;;;;;;5114398;28;20051;-69
2021/07/23 01:33:28;;;;;;;13.02;9.00;;;;;;;;;;5113723;28;20063;-69
2021/07/23 01:35:54;;;;;;;13.65;10.02;;;;;;;;;;5113821;28;20048;-69
2021/07/23 01:38:24;;;;;;;12.18;9.70;;;;;;;;;;5113619;28;20047;-69
2021/07/23 01:40:53;;;;;;;13.23;9.23;;;;;;;;;;5094091;28;20473;-69
2021/07/23 01:43:20;;;;;;;14.55;9.60;;;;;;;;;;5092670;28;20054;-69
2021/07/23 01:45:47;;;;;;;14.00;10.48;;;;;;;;;;5110234;28;20044;-69
2021/07/23 01:48:13;;;;;;;17.52;11.50;;;;;;;;;;5113354;28;20488;-69
2021/07/23 01:50:40;;;;;;;15.27;10.52;;;;;;;;;;5113548;28;20054;-69
2021/07/23 01:53:06;;;;;;;19.65;9.80;;;;;;;;;;5113713;28;20135;-70
2021/07/23 01:55:33;;;;;;;13.32;10.10;;;;;;;;;;5113361;28;20059;-69
2021/07/23 01:58:00;;;;;;;16.00;10.70;;;;;;;;;;5113689;28;20055;-69
2021/07/23 02:00:27;;;;;;;14.32;9.98;;;;;;;;;;5113707;28;20044;-69
2021/07/23 02:02:53;;;;;;;15.40;10.90;;;;;;;;;;5113512;28;20048;-70
2021/07/23 02:05:20;;;;;;;15.13;10.48;;;;;;;;;;5113510;28;20058;-69
2021/07/23 02:07:46;;;;;;;16.90;11.48;;;;;;;;;;5112533;28;20047;-69
2021/07/23 02:10:13;;;;;;;15.10;10.77;;;;;;;;;;5113064;28;20062;-69
2021/07/23 02:12:40;;;;;;;13.55;9.65;;;;;;;;;;5113054;28;20048;-69
2021/07/23 02:15:09;;;;;;;15.80;10.27;;;;;;;;;;5113631;28;20043;-69
2021/07/23 02:17:36;;;;;;;13.25;9.40;;;;;;;;;;5112980;28;20055;-69
2021/07/23 02:20:02;;;;;;;15.73;11.23;;;;;;;;;;5113403;28;20795;-69
2021/07/23 02:22:29;;;;;;;13.68;10.02;;;;;;;;;;5113303;28;20048;-69
2021/07/23 02:24:55;;;;;;;15.02;9.13;;;;;;;;;;5113463;28;20047;-69
2021/07/23 02:27:22;;;;;;;13.23;9.75;;;;;;;;;;5113314;28;20044;-69
2021/07/23 02:29:48;;;;;;;14.40;10.00;;;;;;;;;;5113046;28;20511;-70
2021/07/23 02:32:16;;;;;;;18.20;10.82;;;;;;;;;;5113210;28;20047;-69
2021/07/23 02:34:42;;;;;;;17.85;11.45;;;;;;;;;;5112640;28;20059;-69
2021/07/23 02:37:09;;;;;;;13.13;9.57;;;;;;;;;;5112816;28;20715;-69
2021/07/23 02:39:35;;;;;;;14.45;9.80;;;;;;;;;;5112815;28;20051;-69
2021/07/23 02:42:02;;;;;;;13.15;9.45;;;;;;;;;;5112638;28;20464;-69
2021/07/23 02:44:28;;;;;;;18.13;12.43;;;;;;;;;;5112402;28;20468;-69
2021/07/23 02:46:55;;;;;;;15.02;9.95;;;;;;;;;;5112786;28;20060;-69
2021/07/23 02:49:22;;;;;;;13.40;9.98;;;;;;;;;;5112567;28;20056;-69
2021/07/23 02:51:49;;;;;;;14.70;10.00;;;;;;;;;;5112888;28;20054;-69
2021/07/23 02:54:15;;;;;;;13.07;9.57;;;;;;;;;;5112453;28;20059;-69
2021/07/23 02:56:42;;;;;;;14.90;10.02;;;;;;;;;;5112599;28;20062;-69
2021/07/23 02:59:08;;;;;;;14.90;10.15;;;;;;;;;;5112335;28;20047;-69
2021/07/23 03:01:37;;;;;;;14.95;10.50;;;;;;;;;;5112318;28;20053;-69
2021/07/23 03:04:04;;;;;;;22.60;10.75;;;;;;;;;;5112833;28;20059;-69
2021/07/23 03:06:31;;;;;;;13.00;9.73;;;;;;;;;;5112222;28;20044;-69
2021/07/23 03:08:58;;;;;;;14.18;9.88;;;;;;;;;;5112278;28;20054;-70
2021/07/23 03:11:24;;;;;;;15.30;10.68;;;;;;;;;;5112002;28;20488;-69
2021/07/23 03:13:51;;;;;;;13.80;9.82;;;;;;;;;;5111673;28;20043;-69
2021/07/23 03:16:17;;;;;;;13.32;9.15;;;;;;;;;;5111828;28;20055;-69
2021/07/23 03:18:44;;;;;;;13.48;9.00;;;;;;;;;;5112205;28;20043;-69
2021/07/23 03:21:10;;;;;;;12.90;10.00;;;;;;;;;;5112986;28;20044;-69
2021/07/23 03:23:38;;;;;;;14.35;9.50;;;;;;;;;;5112948;28;20384;-69
2021/07/23 03:26:08;;;;;;;12.73;8.82;;;;;;;;;;5112112;28;20050;-69
2021/07/23 03:28:35;;;;;;;15.85;9.93;;;;;;;;;;5112632;28;20053;-69
2021/07/23 03:31:01;;;;;;;15.05;9.95;;;;;;;;;;5112617;28;20048;-69
2021/07/23 03:33:28;;;;;;;16.33;11.25;;;;;;;;;;5112455;28;20043;-69
2021/07/23 03:35:54;;;;;;;14.85;10.02;;;;;;;;;;5112548;28;20051;-69
2021/07/23 03:38:20;;;;;;;15.93;9.15;;;;;;;;;;5112395;28;20056;-69
2021/07/23 03:40:48;;;;;;;13.20;9.25;;;;;;;;;;5112865;28;20052;-69
2021/07/23 03:43:15;;;;;;;18.40;8.85;;;;;;;;;;5111696;28;20054;-69
2021/07/23 03:45:41;;;;;;;15.23;10.27;;;;;;;;;;5112440;28;20051;-69
2021/07/23 03:48:08;;;;;;;13.77;10.02;;;;;;;;;;5112356;28;20130;-69
2021/07/23 03:50:34;;;;;;;17.85;9.95;;;;;;;;;;5112233;28;20054;-69
2021/07/23 03:53:01;;;;;;;14.82;10.68;;;;;;;;;;5112200;28;20051;-69
2021/07/23 03:55:27;;;;;;;12.48;9.80;;;;;;;;;;5112504;28;20428;-69
2021/07/23 03:57:55;;;;;;;14.15;9.80;;;;;;;;;;5111772;28;20476;-69
2021/07/23 04:00:23;;;;;;;13.57;9.50;;;;;;;;;;5111112;28;20511;-69
2021/07/23 04:02:49;;;;;;;14.52;9.82;;;;;;;;;;5111395;28;20040;-69
2021/07/23 04:05:16;;;;;;;13.63;10.07;;;;;;;;;;5111980;28;20043;-69
2021/07/23 04:07:42;;;;;;;13.70;9.15;;;;;;;;;;5111546;28;20483;-69
2021/07/23 04:10:10;;;;;;;12.52;9.02;;;;;;;;;;5108361;28;20047;-69
2021/07/23 04:12:37;;;;;;;12.85;8.75;;;;;;;;;;5110643;28;20358;-69
2021/07/23 04:15:09;;;;;;;13.05;9.13;;;;;;;;;;5111332;28;20492;-69
2021/07/23 04:17:36;;;;;;;13.48;9.85;;;;;;;;;;5110769;28;20054;-69
2021/07/23 04:20:02;;;;;;;15.00;9.70;;;;;;;;;;5111229;28;20039;-69
2021/07/23 04:22:29;;;;;;;14.38;9.82;;;;;;;;;;5111460;28;20039;-69
2021/07/23 04:24:56;;;;;;;14.43;10.02;;;;;;;;;;5111067;28;20515;-69
2021/07/23 04:27:22;;;;;;;15.20;9.50;;;;;;;;;;5109387;28;20051;-69
2021/07/23 04:29:48;;;;;;;14.27;10.07;;;;;;;;;;5111571;28;20036;-69
2021/07/23 04:32:16;;;;;;;11.85;8.73;;;;;;;;;;5106462;28;20055;-69
2021/07/23 04:34:43;;;;;;;14.20;9.85;;;;;;;;;;5114500;28;20400;-69
2021/07/23 04:37:09;;;;;;;14.68;9.82;;;;;;;;;;5114810;28;20390;-69
2021/07/23 04:39:36;;;;;;;12.52;8.95;;;;;;;;;;5115405;28;20047;-69
2021/07/23 04:42:04;;;;;;;14.48;9.30;;;;;;;;;;5114954;28;20054;-69
2021/07/23 04:44:31;;;;;;;13.25;9.35;;;;;;;;;;5114477;28;20047;-69
2021/07/23 04:46:59;;;;;;;12.40;8.77;;;;;;;;;;5111596;28;20043;-68
2021/07/23 04:49:27;;;;;;;14.65;9.95;;;;;;;;;;5110934;28;20051;-68
2021/07/23 04:51:54;;;;;;;12.60;9.40;;;;;;;;;;5112252;28;20040;-68
2021/07/23 04:54:20;;;;;;;12.93;9.25;;;;;;;;;;5114359;28;20059;-68
2021/07/23 04:56:50;;;;;;;12.30;9.20;;;;;;;;;;5104636;28;20058;-68
2021/07/23 04:59:17;;;;;;;15.65;11.10;;;;;;;;;;5115162;28;20051;-69
2021/07/23 05:01:43;;;;;;;14.15;10.50;;;;;;;;;;5110063;28;20122;-69
2021/07/23 05:04:10;;;;;;;13.65;9.95;;;;;;;;;;5111126;28;20052;-69
2021/07/23 05:06:38;;;;;;;15.52;9.82;;;;;;;;;;5110292;28;20398;-68
2021/07/23 05:09:06;;;;;;;16.13;10.00;;;;;;;;;;5114843;28;20047;-68
2021/07/23 05:11:33;;;;;;;15.75;10.45;;;;;;;;;;5114640;28;20093;-68
2021/07/23 05:14:00;;;;;;;15.50;10.00;;;;;;;;;;5114778;28;20055;-68
2021/07/23 05:16:27;;;;;;;13.85;9.45;;;;;;;;;;5114242;28;20054;-68
2021/07/23 05:18:54;;;;;;;14.60;9.57;;;;;;;;;;5113971;28;20052;-69
2021/07/23 05:21:20;;;;;;;15.52;9.15;;;;;;;;;;5115225;28;20049;-68
2021/07/23 05:23:48;;;;;;;13.38;8.77;;;;;;;;;;5113253;28;20046;-68
2021/07/23 05:26:14;;;;;;;14.65;10.32;;;;;;;;;;5111874;28;20537;-69
2021/07/23 05:28:41;;;;;;;17.65;10.93;;;;;;;;;;5110131;28;20043;-69
2021/07/23 05:31:07;;;;;;;14.13;10.02;;;;;;;;;;5112281;28;20055;-69
2021/07/23 05:33:34;;;;;;;16.40;10.65;;;;;;;;;;5109562;28;20051;-69
2021/07/23 05:36:00;;;;;;;16.25;10.25;;;;;;;;;;5108632;28;20047;-69
2021/07/23 05:38:27;;;;;;;12.27;8.65;;;;;;;;;;5110174;28;20055;-68
2021/07/23 05:40:55;;;;;;;15.38;10.73;;;;;;;;;;5112264;28;20051;-68
2021/07/23 05:43:21;;;;;;;16.58;11.25;;;;;;;;;;5109855;28;20396;-68
2021/07/23 05:45:48;;;;;;;17.58;11.60;;;;;;;;;;5113582;28;20046;-68
2021/07/23 05:48:14;;;;;;;14.65;10.40;;;;;;;;;;5111381;28;20483;-68
2021/07/23 05:50:41;;;;;;;15.80;10.98;;;;;;;;;;5103174;28;20047;-68
2021/07/23 05:53:07;;;;;;;14.20;10.43;;;;;;;;;;5104809;28;20050;-69
2021/07/23 05:55:34;;;;;;;16.67;12.48;;;;;;;;;;5107061;28;20134;-69
2021/07/23 05:58:01;;;;;;;17.90;12.18;;;;;;;;;;5105907;28;20138;-68
2021/07/23 06:00:28;;;;;;;16.60;11.50;;;;;;;;;;5110726;28;20043;-68
2021/07/23 06:02:55;;;;;;;19.45;13.18;;;;;;;;;;5093707;28;20048;-69
2021/07/23 06:05:21;;;;;;;15.07;10.57;;;;;;;;;;5113537;28;20047;-68
2021/07/23 06:07:48;;;;;;;17.45;12.20;;;;;;;;;;5114322;28;20495;-68
2021/07/23 06:10:14;;;;;;;15.75;11.40;;;;;;;;;;5114297;28;20475;-68
2021/07/23 06:12:41;;;;;;;15.32;11.48;;;;;;;;;;5114139;28;20496;-68
2021/07/23 06:15:09;;;;;;;16.05;11.52;;;;;;;;;;5114501;28;20047;-68
2021/07/23 06:17:36;;;;;;;17.40;11.23;;;;;;;;;;5114138;28;20580;-68
2021/07/23 06:20:03;;;;;;;15.48;11.32;;;;;;;;;;5113552;28;20476;-68
2021/07/23 06:22:29;;;;;;;18.10;12.05;;;;;;;;;;5113812;28;20043;-68
2021/07/23 06:24:58;;;;;;;16.00;12.00;;;;;;;;;;5114299;28;20455;-68
2021/07/23 06:27:24;;;;;;;17.55;11.77;;;;;;;;;;5114183;28;20047;-68
2021/07/23 06:29:53;;;;;;;19.67;13.07;;;;;;;;;;5114436;28;20055;-68
2021/07/23 06:32:22;;;;;;;19.50;11.43;;;;;;;;;;5114184;28;20052;-68
2021/07/23 06:34:49;;;;;;;15.30;11.25;;;;;;;;;;5114099;28;20044;-68
2021/07/23 06:37:20;;;;;;;18.55;12.00;;;;;;;;;;5113931;28;20047;-68
2021/07/23 06:39:47;;;;;;;17.33;11.73;;;;;;;;;;5113738;28;20423;-68
2021/07/23 06:42:13;;;;;;;14.85;11.90;;;;;;;;;;5108027;28;20043;-69
2021/07/23 06:44:40;;;;;;;16.38;11.55;;;;;;;;;;5113642;28;20121;-68
2021/07/23 06:47:06;;;;;;;16.40;10.95;;;;;;;;;;5113809;28;20063;-68
2021/07/23 06:49:34;;;;;;;16.27;11.65;;;;;;;;;;5113525;28;20058;-68
2021/07/23 06:52:01;;;;;;;16.60;11.52;;;;;;;;;;5113365;27;20043;-68
2021/07/23 06:54:28;;;;;;;15.05;11.63;;;;;;;;;;5112625;28;20039;-68
2021/07/23 06:56:55;;;;;;;15.48;11.35;;;;;;;;;;5113482;28;20058;-68
2021/07/23 06:59:22;;;;;;;15.90;11.30;;;;;;;;;;5113431;28;20138;-68
2021/07/23 07:01:48;;;;;;;17.58;11.65;;;;;;;;;;5113475;28;20047;-68
2021/07/23 07:04:15;;;;;;;15.02;11.07;;;;;;;;;;5113086;28;20059;-68
2021/07/23 07:06:42;;;;;;;12.70;10.55;;;;;;;;;;5113188;28;20066;-68
2021/07/23 07:09:09;;;;;;;13.68;10.05;;;;;;;;;;5113125;28;20055;-68
2021/07/23 07:11:35;;;;;;;15.93;11.13;;;;;;;;;;5112533;28;20420;-69
2021/07/23 07:14:02;;;;;;;14.10;10.25;;;;;;;;;;5113229;28;20035;-68
2021/07/23 07:16:28;;;;;;;17.48;10.57;;;;;;;;;;5113076;28;20380;-68
2021/07/23 07:18:55;;;;;;;14.07;10.10;;;;;;;;;;5113057;28;20127;-68
2021/07/23 07:21:21;;;;;;;16.33;11.57;;;;;;;;;;5113292;28;20051;-68
2021/07/23 07:23:49;;;;;;;15.00;10.82;;;;;;;;;;5112913;27;20059;-68
2021/07/23 07:26:15;;;;;;;13.70;10.13;;;;;;;;;;5113234;28;20055;-68
2021/07/23 07:28:42;;;;;;;15.18;10.35;;;;;;;;;;5112663;28;20043;-68
2021/07/23 07:31:08;;;;;;;15.20;10.25;;;;;;;;;;5112730;28;20047;-68
2021/07/23 07:33:35;;;;;;;13.60;11.85;;;;;;;;;;5113068;28;20050;-72
2021/07/23 07:36:01;;;;;;;14.10;10.07;;;;;;;;;;5113023;28;20044;-68
2021/07/23 07:38:28;;;;;;;14.57;10.95;;;;;;;;;;5112133;28;20058;-68
2021/07/23 07:40:55;;;;;;;15.38;10.45;;;;;;;;;;5112145;28;20043;-68
2021/07/23 07:43:22;;;;;;;14.65;10.52;;;;;;;;;;5106978;28;20047;-68
2021/07/23 07:45:52;;;;;;;11.00;9.18;;;;;;;;;;5112702;28;20043;-68
2021/07/23 07:48:19;;;;;;;14.38;10.43;;;;;;;;;;5112350;28;20050;-68
2021/07/23 07:50:45;;;;;;;14.02;10.57;;;;;;;;;;5112691;28;20057;-68
2021/07/23 07:53:12;;;;;;;14.77;10.57;;;;;;;;;;5112321;28;20035;-68
2021/07/23 07:55:39;;;;;;;13.77;10.07;;;;;;;;;;5112538;28;20155;-68
2021/07/23 07:58:06;;;;;;;12.10;10.32;;;;;;;;;;5112227;28;20058;-68
2021/07/23 08:00:33;;;;;;;16.95;10.95;;;;;;;;;;5112447;28;20047;-68
2021/07/23 08:02:59;;;;;;;16.88;10.95;;;;;;;;;;5112434;28;20056;-68
2021/07/23 08:05:26;;;;;;;14.05;10.98;;;;;;;;;;5112218;28;20484;-68
2021/07/23 08:07:57;;;;;;;15.13;10.50;;;;;;;;;;5112297;28;20388;-68
2021/07/23 08:10:25;;;;;;;14.80;11.02;;;;;;;;;;5111368;28;20051;-69
2021/07/23 08:12:52;;;;;;;11.93;10.63;;;;;;;;;;5111864;28;20484;-69
2021/07/23 08:15:20;;;;;;;11.02;9.77;;;;;;;;;;5112354;28;20047;-68
2021/07/23 08:17:46;;;;;;;14.00;10.90;;;;;;;;;;5112023;28;20078;-68
2021/07/23 08:20:14;;;;;;;17.45;11.35;;;;;;;;;;5112132;28;20461;-69
2021/07/23 08:22:41;;;;;;;15.25;9.77;;;;;;;;;;5111888;28;20404;-69
2021/07/23 08:25:08;;;;;;;13.43;9.43;;;;;;;;;;5112159;28;20044;-69
2021/07/23 08:27:35;;;;;;;15.93;10.00;;;;;;;;;;5112146;28;20420;-69
2021/07/23 08:30:02;;;;;;;13.35;10.77;;;;;;;;;;5112275;28;20353;-69
2021/07/23 08:32:32;;;;;;;12.30;10.30;;;;;;;;;;5111798;28;20062;-69
2021/07/23 08:34:59;;;;;;;13.23;9.60;;;;;;;;;;5112067;28;20127;-69
2021/07/23 08:37:25;;;;;;;14.25;9.68;;;;;;;;;;5111973;28;20105;-69
2021/07/23 08:39:52;;;;;;;12.55;9.98;;;;;;;;;;5111298;28;20484;-69
2021/07/23 08:42:26;;;;;;;14.80;9.75;;;;;;;;;;5111058;28;20065;-69
2021/07/23 08:44:53;;;;;;;11.83;9.33;;;;;;;;;;5111804;28;20417;-69
2021/07/23 08:47:20;;;;;;;12.77;10.35;;;;;;;;;;5111877;28;20051;-69
2021/07/23 08:49:47;;;;;;;10.88;9.55;;;;;;;;;;5111133;28;20101;-69
2021/07/23 08:52:14;;;;;;;12.85;9.25;;;;;;;;;;5112102;28;20055;-69
2021/07/23 08:54:40;;;;;;;11.35;9.73;;;;;;;;;;5111914;28;20059;-69
2021/07/23 08:57:08;;;;;;;13.00;10.32;;;;;;;;;;5111936;28;20043;-69
2021/07/23 08:59:35;;;;;;;13.38;10.48;;;;;;;;;;5111964;28;20476;-69
2021/07/23 09:02:04;;;;;;;14.52;11.25;;;;;;;;;;5111667;28;20136;-69
2021/07/23 09:04:31;;;;;;;12.57;10.27;;;;;;;;;;5111404;28;20073;-69
2021/07/23 09:07:31;;;;;;;12.38;10.20;;;;;;;;;;5111945;28;20055;-69
2021/07/23 09:10:03;;;;;;;12.10;10.57;;;;;;;;;;5098953;28;20047;-69
2021/07/23 09:12:41;;;;;;;11.77;10.13;;;;;;;;;;5111219;28;20043;-69
2021/07/23 09:15:16;;;;;;;14.77;9.25;;;;;;;;;;5111860;28;20442;-68
2021/07/23 09:17:43;;;;;;;12.18;9.38;;;;;;;;;;5113160;28;20065;-69
2021/07/23 09:20:10;;;;;;;12.27;9.73;;;;;;;;;;5115395;28;20053;-69
2021/07/23 09:22:48;;;;;;;11.52;10.32;;;;;;;;;;5115541;27;20051;-69
2021/07/23 09:25:15;;;;;;;12.48;9.45;;;;;;;;;;5114690;28;20047;-69
2021/07/23 09:27:42;;;;;;;11.00;9.73;;;;;;;;;;5115401;28;20047;-69
2021/07/23 09:30:10;;;;;;;12.43;10.25;;;;;;;;;;5115025;28;20050;-69
2021/07/23 09:32:37;;;;;;;12.57;9.80;;;;;;;;;;5115413;28;20044;-69
2021/07/23 09:35:11;;;;;;;12.80;10.35;;;;;;;;;;5115351;28;20066;-69
2021/07/23 09:37:59;;;;;;;14.75;9.63;;;;;;;;;;5114619;28;20514;-69
2021/07/23 09:40:26;;;;;;;11.00;9.70;;;;;;;;;;5111990;28;20047;-69
2021/07/23 09:42:57;;;;;;;12.63;9.73;;;;;;;;;;5114872;28;20464;-69
2021/07/23 09:45:28;;;;;;;12.20;9.82;;;;;;;;;;5114679;28;20039;-69
2021/07/23 09:48:09;;;;;;;11.00;8.90;;;;;;;;;;5114944;28;20062;-69
2021/07/23 09:50:39;;;;;;;12.48;9.82;;;;;;;;;;5111650;28;20442;-69
2021/07/23 09:53:08;;;;;;;11.77;10.55;;;;;;;;;;5114848;28;20465;-69
2021/07/23 09:55:35;;;;;;;13.73;11.00;;;;;;;;;;5114602;28;20048;-69
2021/07/23 09:58:05;;;;;;;11.75;10.55;;;;;;;;;;5114338;28;20054;-69
2021/07/23 10:00:32;;;;;;;11.05;9.90;;;;;;;;;;5113530;28;20070;-69
2021/07/23 10:02:58;;;;;;;10.57;9.05;;;;;;;;;;5111386;28;20050;-69
2021/07/23 10:05:27;;;;;;;12.68;9.55;;;;;;;;;;5112275;28;20043;-69
2021/07/23 10:07:56;;;;;;;12.07;10.10;;;;;;;;;;5112516;28;20130;-69
2021/07/23 10:10:25;;;;;;;11.25;9.27;;;;;;;;;;5110011;28;20039;-67
2021/07/23 10:12:52;;;;;;;11.50;9.23;;;;;;;;;;5111327;28;20172;-70
2021/07/23 10:15:19;;;;;;;11.63;9.35;;;;;;;;;;5112033;28;20044;-70
2021/07/23 10:17:47;;;;;;;10.82;9.73;;;;;;;;;;5113665;28;20104;-69
2021/07/23 10:20:14;;;;;;;11.25;9.30;;;;;;;;;;5113466;28;20051;-68
2021/07/23 10:22:41;;;;;;;12.38;10.02;;;;;;;;;;5113827;28;20125;-68
2021/07/23 10:25:08;;;;;;;12.23;10.10;;;;;;;;;;5113618;28;20059;-69
2021/07/23 10:27:40;;;;;;;12.52;10.05;;;;;;;;;;5113821;28;20051;-69
2021/07/23 10:30:30;;;;;;;12.52;9.82;;;;;;;;;;5114200;28;20051;-69
2021/07/23 10:32:57;;;;;;;11.30;10.07;;;;;;;;;;5113990;28;20457;-69
2021/07/23 10:35:32;;;;;;;10.80;9.70;;;;;;;;;;5108277;28;20052;-69
2021/07/23 10:38:00;;;;;;;11.88;9.90;;;;;;;;;;5113421;28;20549;-69
2021/07/23 10:40:39;;;;;;;11.68;10.18;;;;;;;;;;5113517;28;20062;-69
2021/07/23 10:43:36;;;;;;;11.60;9.25;;;;;;;;;;5114019;28;20571;-69
2021/07/23 10:46:02;;;;;;;12.30;9.82;;;;;;;;;;5113679;28;20047;-69
2021/07/23 10:48:46;;;;;;;10.45;9.40;;;;;;;;;;5113435;28;20554;-69
2021/07/23 10:51:46;;;;;;;11.95;9.55;;;;;;;;;;5113938;28;20051;-69
2021/07/23 10:54:14;;;;;;;10.90;9.80;;;;;;;;;;5113672;28;20468;-69
2021/07/23 10:57:12;;;;;;;12.63;9.43;;;;;;;;;;5108510;28;20052;-69
2021/07/23 10:59:53;;;;;;;10.57;9.43;;;;;;;;;;5110412;28;20044;-69
2021/07/23 11:02:42;;;;;;;12.57;10.27;;;;;;;;;;5113416;28;20048;-69
2021/07/23 11:05:09;;;;;;;10.98;8.82;;;;;;;;;;5107505;28;20044;-69
2021/07/23 11:07:37;;;;;;;12.38;10.38;;;;;;;;;;5113083;28;20419;-69
2021/07/23 11:10:04;;;;;;;12.95;9.43;;;;;;;;;;5113141;28;20532;-67
2021/07/23 11:12:40;;;;;;;11.88;8.95;;;;;;;;;;5113207;28;20048;-67
2021/07/23 11:15:09;;;;;;;11.57;10.40;;;;;;;;;;5112458;28;20040;-67
2021/07/23 11:17:47;;;;;;;9.35;8.20;;;;;;;;;;5107514;28;20058;-67
2021/07/23 11:20:14;;;;;;;10.80;8.82;;;;;;;;;;5102941;28;20044;-68
2021/07/23 11:22:40;;;;;;;12.20;9.45;;;;;;;;;;5111174;28;20071;-70
2021/07/23 11:25:08;;;;;;;9.77;8.77;;;;;;;;;;5112685;28;20043;-68
2021/07/23 11:27:36;;;;;;;10.93;8.60;;;;;;;;;;5111217;28;20067;-68
2021/07/23 11:30:14;;;;;;;11.52;9.07;;;;;;;;;;5112877;28;20134;-68
2021/07/23 11:32:52;;;;;;;9.23;8.23;;;;;;;;;;5093222;28;20141;-68
2021/07/23 11:35:19;;;;;;;11.07;8.80;;;;;;;;;;5112912;28;20096;-69
2021/07/23 11:37:46;;;;;;;10.55;8.77;;;;;;;;;;5111452;28;20044;-68
2021/07/23 11:40:15;;;;;;;12.50;8.75;;;;;;;;;;5110368;28;20077;-70
2021/07/23 11:42:44;;;;;;;10.15;9.10;;;;;;;;;;5108475;28;20048;-69
2021/07/23 11:45:12;;;;;;;9.70;8.70;;;;;;;;;;5109505;28;20078;-69
2021/07/23 11:47:42;;;;;;;10.23;8.35;;;;;;;;;;5111869;28;20411;-68
2021/07/23 11:50:10;;;;;;;11.30;8.82;;;;;;;;;;5112177;28;20050;-70
2021/07/23 11:52:37;;;;;;;11.30;9.02;;;;;;;;;;5112263;28;20047;-68
2021/07/23 11:55:05;;;;;;;11.18;8.82;;;;;;;;;;5108549;28;20062;-70
2021/07/23 11:57:34;;;;;;;11.70;8.70;;;;;;;;;;5111928;28;20047;-70
2021/07/23 12:00:02;;;;;;;9.55;8.55;;;;;;;;;;5107565;28;20044;-68
2021/07/23 12:02:30;;;;;;;10.68;9.25;;;;;;;;;;5109505;28;20131;-69
2021/07/23 12:05:09;;;;;;;9.65;7.90;;;;;;;;;;5111804;28;20051;-69
2021/07/23 12:07:36;;;;;;;11.93;8.57;;;;;;;;;;5109503;28;20404;-69
2021/07/23 12:10:04;;;;;;;9.48;8.10;;;;;;;;;;5111796;28;20054;-69
2021/07/23 12:12:31;;;;;;;9.90;8.07;;;;;;;;;;5111967;28;20665;-69
2021/07/23 12:15:03;;;;;;;11.55;8.70;;;;;;;;;;5111333;28;20046;-69
2021/07/23 12:17:31;;;;;;;11.15;8.30;;;;;;;;;;5107472;28;20051;-69
2021/07/23 12:19:57;;;;;;;10.18;8.15;;;;;;;;;;5109796;28;20380;-69
2021/07/23 12:22:25;;;;;;;9.23;8.02;;;;;;;;;;5109122;28;20054;-69
2021/07/23 12:24:51;;;;;;;8.50;7.30;;;;;;;;;;5106647;28;20051;-69
2021/07/23 12:27:22;;;;;;;8.18;7.18;;;;;;;;;;5109111;28;20464;-68
2021/07/23 12:29:48;;;;;;;10.30;8.25;;;;;;;;;;5109412;28;20449;-69
2021/07/23 12:32:15;;;;;;;10.10;7.68;;;;;;;;;;5107271;28;20056;-68
2021/07/23 12:34:42;;;;;;;11.02;7.78;;;;;;;;;;5101812;28;20042;-68
2021/07/23 12:37:16;;;;;;;8.60;7.70;;;;;;;;;;5110083;28;20047;-68
2021/07/23 12:39:56;;;;;;;10.73;7.85;;;;;;;;;;5102643;28;20059;-68
2021/07/23 12:42:23;;;;;;;9.10;8.00;;;;;;;;;;5111226;28;20047;-68
2021/07/23 12:44:49;;;;;;;10.15;7.85;;;;;;;;;;5111345;28;20130;-68
2021/07/23 12:47:17;;;;;;;8.80;7.75;;;;;;;;;;5110984;28;20506;-68
2021/07/23 12:49:44;;;;;;;10.48;7.70;;;;;;;;;;5111002;28;20043;-68
2021/07/23 12:52:10;;;;;;;9.15;8.07;;;;;;;;;;5111567;28;20060;-68
2021/07/23 12:54:38;;;;;;;10.23;7.95;;;;;;;;;;5115362;28;20136;-69
2021/07/23 12:57:16;;;;;;;10.00;7.72;;;;;;;;;;5115679;28;20047;-69
2021/07/23 12:59:43;;;;;;;8.27;7.47;;;;;;;;;;5116261;28;20100;-69
2021/07/23 13:02:10;;;;;;;8.77;7.97;;;;;;;;;;5115687;28;20077;-69
2021/07/23 13:04:36;;;;;;;9.70;7.60;;;;;;;;;;5115722;28;20052;-69
2021/07/23 13:07:03;;;;;;;8.55;7.00;;;;;;;;;;5115803;28;20480;-69
2021/07/23 13:09:29;;;;;;;9.95;7.40;;;;;;;;;;5115675;28;20058;-69
2021/07/23 13:11:56;;;;;;;11.60;7.57;;;;;;;;;;5115852;28;20062;-69
2021/07/23 13:14:24;;;;;;;8.73;7.75;;;;;;;;;;5115715;28;20090;-69
2021/07/23 13:16:50;;;;;;;10.15;7.07;;;;;;;;;;5115069;28;20047;-68
2021/07/23 13:19:17;;;;;;;8.80;7.63;;;;;;;;;;5115238;27;20055;-69
2021/07/23 13:21:44;;;;;;;9.45;6.95;;;;;;;;;;5115591;28;20490;-69
2021/07/23 13:24:11;;;;;;;9.73;7.28;;;;;;;;;;5115498;28;20461;-69
2021/07/23 13:26:38;;;;;;;9.48;7.78;;;;;;;;;;5115607;28;20039;-68
2021/07/23 13:29:06;;;;;;;9.70;7.45;;;;;;;;;;5115194;28;20078;-68
2021/07/23 13:31:34;;;;;;;9.90;7.57;;;;;;;;;;5115530;27;20484;-68
2021/07/23 13:34:00;;;;;;;10.73;7.50;;;;;;;;;;5114892;28;20052;-68
2021/07/23 13:36:29;;;;;;;11.57;7.30;;;;;;;;;;5114902;28;20055;-68
2021/07/23 13:39:03;;;;;;;8.65;7.18;;;;;;;;;;5114962;28;20058;-68
2021/07/23 13:41:34;;;;;;;8.75;7.43;;;;;;;;;;5115121;28;20051;-68
2021/07/23 13:44:01;;;;;;;10.75;7.75;;;;;;;;;;5115216;28;20051;-68
2021/07/23 13:46:27;;;;;;;10.38;6.95;;;;;;;;;;5114854;28;20044;-68
2021/07/23 13:48:55;;;;;;;8.65;6.78;;;;;;;;;;5114263;28;20050;-69
2021/07/23 13:51:22;;;;;;;12.48;7.32;;;;;;;;;;5114487;28;20056;-69
2021/07/23 13:53:48;;;;;;;11.65;7.22;;;;;;;;;;5114619;28;20047;-69
2021/07/23 13:56:15;;;;;;;17.05;7.57;;;;;;;;;;5114774;28;20039;-68
2021/07/23 13:58:41;;;;;;;9.88;7.45;;;;;;;;;;5114773;28;20054;-69
2021/07/23 14:01:08;;;;;;;8.75;7.82;;;;;;;;;;5114303;28;20066;-68
2021/07/23 14:03:35;;;;;;;12.77;7.03;;;;;;;;;;5114213;28;20047;-68
2021/07/23 14:06:03;;;;;;;9.95;6.78;;;;;;;;;;5114729;28;20043;-68
2021/07/23 14:08:29;;;;;;;10.13;7.47;;;;;;;;;;5114266;28;20048;-68
2021/07/23 14:10:56;;;;;;;9.43;6.93;;;;;;;;;;5114296;28;20051;-68
2021/07/23 14:13:23;;;;;;;10.07;7.82;;;;;;;;;;5114634;28;20376;-68
2021/07/23 14:15:49;;;;;;;9.90;7.40;;;;;;;;;;5114598;28;20047;-68
2021/07/23 14:18:16;;;;;;;8.40;6.70;;;;;;;;;;5114008;28;20051;-68
2021/07/23 14:20:42;;;;;;;9.30;6.97;;;;;;;;;;5114144;28;20381;-68
2021/07/23 14:23:10;;;;;;;11.13;7.18;;;;;;;;;;5114383;28;20455;-68
2021/07/23 14:25:36;;;;;;;8.93;7.35;;;;;;;;;;5114097;28;20047;-68
2021/07/23 14:28:05;;;;;;;11.98;7.38;;;;;;;;;;5113860;28;20039;-68
2021/07/23 14:30:31;;;;;;;10.80;7.57;;;;;;;;;;5113704;28;20097;-68